Time;durP1;ratioP1;P1;durP2;ratioP2;P2;SDS_P1;SDS_P2;PMS_P1;PMS_P2;Temp;Humidity;BMP_temperature;BMP_pressure;BME280_temperature;BME280_humidity;BME280_pressure;Samples;Min_cycle;Max_cycle;Signal;HPM_P1;HPM_P2
2021/12/05 00:39:33;;;;;;;;;;;3.20;99.90;;;;;;5016004;28;19957;-79
2021/12/05 00:42:38;;;;;;;;;;;3.20;99.90;;;;;;5015607;28;20330;-79
2021/12/05 00:54:00;;;;;;;;;;;3.30;99.90;;;;;;5020234;28;20272;-79
2021/12/05 01:15:07;;;;;;;;;;;3.30;99.90;;;;;;4976024;28;19929;-79
2021/12/05 01:17:55;;;;;;;;;;;3.30;99.90;;;;;;4975867;28;20356;-79
2021/12/05 01:20:21;;;;;;;;;;;3.30;99.90;;;;;;4975276;28;19977;-79
2021/12/05 01:22:55;;;;;;;;;;;3.30;99.90;;;;;;4975987;28;19918;-79
2021/12/05 01:42:21;;;;;;;;;;;3.20;99.90;;;;;;4957710;29;19922;-79
2021/12/05 02:11:22;;;;;;;;;;;3.30;99.90;;;;;;4994581;28;19944;-79
2021/12/05 02:31:01;;;;;;;;;;;3.40;99.90;;;;;;5095612;28;19924;-79
2021/12/05 02:41:53;;;;;;;;;;;3.50;99.90;;;;;;5092294;28;19974;-79
2021/12/05 02:46:48;;;;;;;;;;;3.50;99.90;;;;;;5095857;28;19920;-79
2021/12/05 02:49:16;;;;;;;;;;;3.60;99.90;;;;;;5095673;28;19963;-79
2021/12/05 02:51:42;;;;;;;;;;;3.60;99.90;;;;;;5076949;28;20357;-79
2021/12/05 02:54:14;;;;;;;;;;;3.90;99.90;;;;;;5095410;28;19920;-79
2021/12/05 02:56:44;;;;;;;;;;;4.00;99.90;;;;;;5095451;28;20259;-79
2021/12/05 03:01:54;;;;;;;;;;;3.70;99.90;;;;;;5095465;28;20262;-79
2021/12/05 03:04:21;;;;;;;;;;;3.60;99.90;;;;;;5095218;28;19920;-79
2021/12/05 03:06:52;;;;;;;;;;;3.60;99.90;;;;;;5097390;28;19919;-79
2021/12/05 03:09:17;;;;;;;;;;;3.60;99.90;;;;;;5095543;28;20014;-79
2021/12/05 03:11:43;;;;;;;;;;;3.60;99.90;;;;;;5094963;28;20109;-79
2021/12/05 03:14:09;;;;;;;;;;;3.60;99.90;;;;;;5077035;28;19927;-79
2021/12/05 03:16:36;;;;;;;;;;;3.60;99.90;;;;;;5095193;28;19920;-79
2021/12/05 03:19:03;;;;;;;;;;;3.60;99.90;;;;;;5076539;28;20377;-79
2021/12/05 03:21:29;;;;;;;;;;;3.60;99.90;;;;;;5095353;28;20328;-79
2021/12/05 03:23:55;;;;;;;;;;;3.50;99.90;;;;;;5076926;28;19916;-79
2021/12/05 03:26:24;;;;;;;;;;;3.50;99.90;;;;;;5095027;28;20014;-79
2021/12/05 03:28:53;;;;;;;;;;;3.40;99.90;;;;;;5076359;28;19942;-79
2021/12/05 03:31:19;;;;;;;;;;;3.40;99.90;;;;;;5094867;28;19920;-79
2021/12/05 03:33:45;;;;;;;;;;;3.40;99.90;;;;;;5095068;28;19922;-79
2021/12/05 03:36:11;;;;;;;;;;;3.30;99.90;;;;;;5095025;28;19923;-80
2021/12/05 03:38:38;;;;;;;;;;;3.30;99.90;;;;;;5076466;28;20006;-79
2021/12/05 03:44:28;;;;;;;;;;;3.10;99.90;;;;;;5094365;28;20277;-79
2021/12/05 03:46:55;;;;;;;;;;;3.10;99.90;;;;;;5094601;28;19924;-79
2021/12/05 03:49:22;;;;;;;;;;;3.00;99.90;;;;;;5094753;28;19927;-79
2021/12/05 03:51:53;;;;;;;;;;;3.00;99.90;;;;;;5076479;28;19920;-79
2021/12/05 03:54:19;;;;;;;;;;;2.90;99.90;;;;;;5094718;28;20027;-79
2021/12/05 03:56:45;;;;;;;;;;;2.90;99.90;;;;;;5094371;28;20389;-79
2021/12/05 03:59:11;;;;;;;;;;;2.80;99.90;;;;;;5094746;28;19927;-79
2021/12/05 04:01:38;;;;;;;;;;;2.70;99.90;;;;;;5094595;28;19915;-79
2021/12/05 04:04:03;;;;;;;;;;;2.70;99.90;;;;;;5094454;28;20466;-79
2021/12/05 04:06:29;;;;;;;;;;;2.60;99.90;;;;;;5094440;28;19920;-79
2021/12/05 04:08:56;;;;;;;;;;;2.60;99.90;;;;;;5094454;28;19949;-80
2021/12/05 04:11:28;;;;;;;;;;;2.60;99.90;;;;;;5094534;28;19920;-79
2021/12/05 04:13:54;;;;;;;;;;;2.60;99.90;;;;;;5094316;28;19927;-80
2021/12/05 04:16:20;;;;;;;;;;;2.50;99.90;;;;;;5094351;28;19965;-79
2021/12/05 04:18:46;;;;;;;;;;;2.50;99.90;;;;;;5094208;28;20300;-79
2021/12/05 04:21:13;;;;;;;;;;;2.50;99.90;;;;;;5094107;28;20369;-79
2021/12/05 04:23:38;;;;;;;;;;;2.50;99.90;;;;;;5095868;28;19920;-79
2021/12/05 04:29:26;;;;;;;;;;;2.40;99.90;;;;;;5094219;28;20281;-79
2021/12/05 04:31:51;;;;;;;;;;;2.40;99.90;;;;;;5075733;28;19920;-79
2021/12/05 04:34:17;;;;;;;;;;;2.40;99.90;;;;;;5094263;28;19949;-79
2021/12/05 04:36:43;;;;;;;;;;;2.40;99.90;;;;;;5076137;28;20281;-79
2021/12/05 04:39:09;;;;;;;;;;;2.40;99.90;;;;;;5093867;28;20331;-79
2021/12/05 04:41:37;;;;;;;;;;;2.40;99.90;;;;;;5094920;28;19942;-79
2021/12/05 04:44:03;;;;;;;;;;;2.40;99.90;;;;;;5094193;28;19981;-79
2021/12/05 04:46:29;;;;;;;;;;;2.90;99.90;;;;;;5094212;28;20362;-79
2021/12/05 04:48:55;;;;;;;;;;;2.40;99.90;;;;;;5094064;28;19920;-80
2021/12/05 04:51:24;;;;;;;;;;;2.40;99.90;;;;;;5094227;28;19926;-79
2021/12/05 04:53:49;;;;;;;;;;;2.40;99.90;;;;;;5093833;28;19927;-79
2021/12/05 04:59:38;;;;;;;;;;;2.40;99.90;;;;;;5097344;28;20328;-79
2021/12/05 05:02:06;;;;;;;;;;;2.40;99.90;;;;;;5097464;28;19931;-79
2021/12/05 05:04:38;;;;;;;;;;;2.40;99.90;;;;;;5097565;28;19942;-79
2021/12/05 05:07:07;;;;;;;;;;;2.40;99.90;;;;;;5097394;28;19931;-79
2021/12/05 05:09:33;;;;;;;;;;;2.40;99.90;;;;;;5097256;28;19920;-79
2021/12/05 05:11:58;;;;;;;;;;;2.50;99.90;;;;;;5079007;28;19920;-79
2021/12/05 05:14:24;;;;;;;;;;;2.50;99.90;;;;;;5097587;28;19927;-79
2021/12/05 05:16:54;;;;;;;;;;;2.50;99.90;;;;;;5097716;28;19958;-79
2021/12/05 05:19:24;;;;;;;;;;;2.50;99.90;;;;;;5096846;28;19920;-79
2021/12/05 05:22:00;;;;;;;;;;;2.40;99.90;;;;;;5097242;28;19926;-79
2021/12/05 05:46:17;;;;;;;;;;;2.40;99.90;;;;;;5096553;28;19927;-79
2021/12/05 05:48:59;;;;;;;;;;;2.40;99.90;;;;;;5078217;28;19935;-79
2021/12/05 05:51:25;;;;;;;;;;;2.40;99.90;;;;;;5096526;28;19920;-79
2021/12/05 05:53:51;;;;;;;;;;;2.40;99.90;;;;;;5078080;28;19966;-79
2021/12/05 05:56:21;;;;;;;;;;;2.40;99.90;;;;;;5096926;28;19920;-79
2021/12/05 05:58:54;;;;;;;;;;;2.40;99.90;;;;;;5098579;28;19950;-79
2021/12/05 06:02:00;;;;;;;;;;;2.40;99.90;;;;;;5097713;28;20286;-79
2021/12/05 06:04:06;;;;;;;;;;;2.40;99.90;;;;;;5077423;28;19926;-79
2021/12/05 06:06:32;;;;;;;;;;;2.40;99.90;;;;;;5096079;28;19921;-79
2021/12/05 06:08:58;;;;;;;;;;;2.40;99.90;;;;;;5096295;28;19920;-79
2021/12/05 06:11:25;;;;;;;;;;;2.40;99.90;;;;;;5096359;28;20007;-79
2021/12/05 06:13:52;;;;;;;;;;;2.40;99.90;;;;;;5096232;28;19952;-79
2021/12/05 06:16:18;;;;;;;;;;;2.40;99.90;;;;;;5096216;28;19923;-79
2021/12/05 06:18:45;;;;;;;;;;;2.50;99.90;;;;;;5095833;28;19931;-79
2021/12/05 06:21:10;;;;;;;;;;;2.50;99.90;;;;;;5095918;28;19973;-79
2021/12/05 06:23:37;;;;;;;;;;;2.50;99.90;;;;;;5096244;28;19916;-79
2021/12/05 06:26:04;;;;;;;;;;;2.50;99.90;;;;;;5095927;28;19920;-79
2021/12/05 06:29:03;;;;;;;;;;;2.50;99.90;;;;;;5095897;28;19949;-79
2021/12/05 06:31:42;;;;;;;;;;;2.50;99.90;;;;;;5077425;28;19923;-79
2021/12/05 06:37:14;;;;;;;;;;;2.50;99.90;;;;;;5077139;28;19920;-79
2021/12/05 06:45:58;;;;;;;;;;;2.60;99.90;;;;;;5095447;28;19923;-79
2021/12/05 06:46:02;;;;;;;;;;;2.70;99.90;;;;;;5076666;28;19958;-79
2021/12/05 06:48:27;;;;;;;;;;;2.60;99.90;;;;;;5095613;28;20018;-79
2021/12/05 06:50:53;;;;;;;;;;;2.70;99.90;;;;;;5095358;28;20031;-79
2021/12/05 06:53:18;;;;;;;;;;;2.70;99.90;;;;;;5095455;28;19935;-79
2021/12/05 06:59:06;;;;;;;;;;;2.70;99.90;;;;;;5095200;28;19958;-79
2021/12/05 07:01:31;;;;;;;;;;;2.80;99.90;;;;;;5095449;28;19920;-79
2021/12/05 07:04:03;;;;;;;;;;;2.70;99.90;;;;;;5076693;28;19924;-79
2021/12/05 07:06:31;;;;;;;;;;;2.70;99.90;;;;;;5094956;28;20410;-79
2021/12/05 07:09:03;;;;;;;;;;;2.70;99.90;;;;;;5095022;28;19934;-79
2021/12/05 07:15:01;;;;;;;;;;;2.80;99.90;;;;;;5095034;28;20358;-79
2021/12/05 07:20:12;;;;;;;;;;;2.80;99.90;;;;;;5076481;28;20011;-80
2021/12/05 07:23:06;;;;;;;;;;;2.90;99.90;;;;;;5095401;28;20007;-79
2021/12/05 07:25:33;;;;;;;;;;;2.80;99.90;;;;;;5076856;28;20430;-79
2021/12/05 07:44:04;;;;;;;;;;;3.00;99.90;;;;;;5075953;28;19926;-79
2021/12/05 07:46:30;;;;;;;;;;;3.00;99.90;;;;;;5094676;28;20006;-79
2021/12/05 07:48:55;;;;;;;;;;;3.00;99.90;;;;;;5076823;28;19927;-80
2021/12/05 07:54:08;;;;;;;;;;;3.10;99.90;;;;;;5098615;28;19920;-79
2021/12/05 07:56:57;;;;;;;;;;;3.10;99.90;;;;;;5080001;28;19921;-79
2021/12/05 08:16:10;;;;;;;;;;;3.10;99.90;;;;;;5075980;28;19927;-79
2021/12/05 08:18:36;;;;;;;;;;;3.70;99.90;;;;;;5075973;28;19924;-79
2021/12/05 08:21:02;;;;;;;;;;;3.10;99.90;;;;;;5076436;28;20366;-79
2021/12/05 08:23:28;;;;;;;;;;;3.10;99.90;;;;;;5094797;28;19955;-79
2021/12/05 08:29:21;;;;;;;;;;;3.10;99.90;;;;;;5096168;28;19923;-79
2021/12/05 08:34:40;;;;;;;;;;;3.20;99.90;;;;;;5079787;28;19927;-79
2021/12/05 08:40:08;;;;;;;;;;;3.20;99.90;;;;;;5097667;28;20289;-79
2021/12/05 10:03:35;;;;;;;;;;;3.90;99.90;;;;;;5075828;28;19924;-79
2021/12/05 10:08:58;;;;;;;;;;;4.00;99.90;;;;;;5075757;28;19920;-79
2021/12/05 10:11:40;;;;;;;;;;;4.00;99.90;;;;;;5075728;28;19920;-79
2021/12/05 10:16:46;;;;;;;;;;;4.00;99.90;;;;;;5075475;28;20366;-79
2021/12/05 10:19:45;;;;;;;;;;;4.40;99.90;;;;;;5084522;28;19943;-79
2021/12/05 10:38:21;;;;;;;;;;;4.10;99.90;;;;;;5095470;28;19919;-79
2021/12/05 10:44:10;;;;;;;;;;;4.10;99.90;;;;;;5095127;28;19961;-79
2021/12/05 10:46:39;;;;;;;;;;;4.10;99.90;;;;;;5095341;28;19965;-79
2021/12/05 10:49:10;;;;;;;;;;;4.10;99.90;;;;;;5095509;28;19924;-79
2021/12/05 10:51:42;;;;;;;;;;;4.10;99.90;;;;;;5094903;28;19927;-79
2021/12/05 10:54:15;;;;;;;;;;;4.20;99.90;;;;;;5094521;28;20445;-79
2021/12/05 11:00:12;;;;;;;;;;;4.20;99.90;;;;;;5094771;28;19915;-79
2021/12/05 11:02:38;;;;;;;;;;;4.20;99.90;;;;;;5095217;28;20270;-79
2021/12/05 11:05:04;;;;;;;;;;;4.20;99.90;;;;;;5094781;28;19931;-79
2021/12/05 11:07:35;;;;;;;;;;;4.20;99.90;;;;;;5095390;28;20315;-79
2021/12/05 11:10:03;;;;;;;;;;;4.20;99.90;;;;;;5094810;28;20366;-79
2021/12/05 11:15:51;;;;;;;;;;;4.20;99.90;;;;;;5094667;28;20285;-79
2021/12/05 11:18:36;;;;;;;;;;;4.30;99.90;;;;;;5094961;28;20014;-79
2021/12/05 11:21:22;;;;;;;;;;;4.30;99.90;;;;;;5076951;28;20034;-79
2021/12/05 11:24:02;;;;;;;;;;;4.20;99.90;;;;;;5076100;28;19997;-79
2021/12/05 11:26:29;;;;;;;;;;;4.20;99.90;;;;;;5076507;28;20283;-79
2021/12/05 11:28:55;;;;;;;;;;;4.30;99.90;;;;;;5094471;28;20441;-79
2021/12/05 11:31:24;;;;;;;;;;;4.20;99.90;;;;;;5094859;28;20023;-79
2021/12/05 11:33:53;;;;;;;;;;;4.20;99.90;;;;;;5075957;28;19966;-79
2021/12/05 11:36:22;;;;;;;;;;;4.30;99.90;;;;;;5076101;28;19920;-79
2021/12/05 11:38:47;;;;;;;;;;;4.20;99.90;;;;;;5077723;28;19916;-79
2021/12/05 11:41:18;;;;;;;;;;;4.20;99.90;;;;;;5094543;28;19924;-79
2021/12/05 11:43:56;;;;;;;;;;;4.60;99.90;;;;;;5076095;28;20018;-79
2021/12/05 11:46:27;;;;;;;;;;;4.20;99.90;;;;;;5094606;28;19916;-79
2021/12/05 11:48:53;;;;;;;;;;;4.30;99.90;;;;;;5094608;28;20285;-79
2021/12/05 11:51:22;;;;;;;;;;;4.20;99.90;;;;;;5094542;28;19920;-79
2021/12/05 11:53:50;;;;;;;;;;;4.20;99.90;;;;;;5094665;28;20007;-79
2021/12/05 11:56:19;;;;;;;;;;;4.20;99.90;;;;;;5076062;28;19920;-79
2021/12/05 11:58:45;;;;;;;;;;;4.20;99.90;;;;;;5076274;28;19920;-79
2021/12/05 12:01:12;;;;;;;;;;;4.30;99.90;;;;;;5075839;28;19920;-79
2021/12/05 12:03:38;;;;;;;;;;;4.30;99.90;;;;;;5077137;28;19924;-79
2021/12/05 12:06:04;;;;;;;;;;;4.20;99.90;;;;;;5098521;28;20016;-79
2021/12/05 12:08:30;;;;;;;;;;;4.30;99.90;;;;;;5080077;28;19959;-79
2021/12/05 12:10:57;;;;;;;;;;;4.30;99.90;;;;;;5098313;28;19934;-79
2021/12/05 12:13:29;;;;;;;;;;;4.30;99.90;;;;;;5098592;28;20006;-79
2021/12/05 12:16:00;;;;;;;;;;;4.30;99.90;;;;;;5079647;28;19920;-79
2021/12/05 12:18:31;;;;;;;;;;;4.30;99.90;;;;;;5079440;28;19931;-79
2021/12/05 12:20:59;;;;;;;;;;;4.30;99.90;;;;;;5079492;28;19927;-79
2021/12/05 12:23:26;;;;;;;;;;;4.30;99.90;;;;;;5098091;28;19927;-79
2021/12/05 12:25:53;;;;;;;;;;;4.30;99.90;;;;;;5079761;28;19968;-79
2021/12/05 12:28:19;;;;;;;;;;;4.40;99.90;;;;;;5098119;28;19920;-78
2021/12/05 12:30:48;;;;;;;;;;;4.40;99.90;;;;;;5079165;28;20010;-79
2021/12/05 12:33:15;;;;;;;;;;;4.30;99.90;;;;;;5097926;28;19964;-79
2021/12/05 12:35:44;;;;;;;;;;;4.40;99.90;;;;;;5079619;28;20014;-79
2021/12/05 12:38:16;;;;;;;;;;;4.40;99.90;;;;;;5079335;28;20057;-79
2021/12/05 12:47:09;;;;;;;;;;;4.40;99.90;;;;;;5097519;28;19931;-79
2021/12/05 12:49:37;;;;;;;;;;;4.40;99.90;;;;;;5078998;28;19920;-79
2021/12/05 12:52:10;;;;;;;;;;;4.50;99.90;;;;;;5097823;28;19919;-79
2021/12/05 12:54:43;;;;;;;;;;;4.50;99.90;;;;;;5079007;28;20459;-79
2021/12/05 12:57:11;;;;;;;;;;;4.60;99.90;;;;;;5097584;28;20007;-79
2021/12/05 12:59:39;;;;;;;;;;;4.60;99.90;;;;;;5097246;28;19920;-79
2021/12/05 13:10:30;;;;;;;;;;;4.70;99.90;;;;;;5017970;28;19921;-79
2021/12/05 13:12:58;;;;;;;;;;;4.70;99.90;;;;;;5034883;28;20016;-79
2021/12/05 13:15:24;;;;;;;;;;;4.70;99.90;;;;;;5017148;28;19964;-79
2021/12/05 13:17:54;;;;;;;;;;;5.10;99.90;;;;;;5017921;28;19921;-79
2021/12/05 13:20:22;;;;;;;;;;;4.80;99.90;;;;;;5034547;28;19921;-79
2021/12/05 13:22:58;;;;;;;;;;;4.80;99.90;;;;;;5034694;28;20303;-79
2021/12/05 13:25:24;;;;;;;;;;;4.80;99.90;;;;;;5034465;28;19967;-79
2021/12/05 13:27:49;;;;;;;;;;;4.80;99.90;;;;;;5017794;28;20348;-79
2021/12/05 13:30:27;;;;;;;;;;;4.80;99.90;;;;;;5034778;28;19921;-79
2021/12/05 13:33:12;;;;;;;;;;;4.80;99.90;;;;;;5034274;28;19921;-79
2021/12/05 13:35:40;;;;;;;;;;;5.00;99.90;;;;;;5034206;28;20011;-79
2021/12/05 13:38:06;;;;;;;;;;;4.90;99.90;;;;;;5017945;28;20350;-79
2021/12/05 13:40:33;;;;;;;;;;;4.80;99.90;;;;;;5019385;28;19928;-79
2021/12/05 13:43:06;;;;;;;;;;;4.80;99.90;;;;;;5018049;28;20402;-79
2021/12/05 13:45:40;;;;;;;;;;;4.80;99.90;;;;;;5090866;28;19920;-79
2021/12/05 13:48:17;;;;;;;;;;;4.80;99.90;;;;;;5078052;28;19920;-79
2021/12/05 13:50:43;;;;;;;;;;;4.80;99.90;;;;;;5096435;28;20011;-79
2021/12/05 13:53:08;;;;;;;;;;;4.80;99.90;;;;;;5096505;28;19974;-79
2021/12/05 13:55:36;;;;;;;;;;;4.80;99.90;;;;;;5096327;28;19931;-79
2021/12/05 13:58:17;;;;;;;;;;;4.80;99.90;;;;;;5096409;28;20282;-79
2021/12/05 14:00:45;;;;;;;;;;;4.80;99.90;;;;;;5077732;28;19920;-79
2021/12/05 14:03:11;;;;;;;;;;;4.80;99.90;;;;;;5096177;28;19990;-79
2021/12/05 14:05:45;;;;;;;;;;;4.80;99.90;;;;;;5078099;28;20365;-79
2021/12/05 14:08:10;;;;;;;;;;;4.80;99.90;;;;;;5096196;28;20007;-79
2021/12/05 14:10:43;;;;;;;;;;;4.80;99.90;;;;;;5077584;28;19974;-79
2021/12/05 14:13:09;;;;;;;;;;;4.80;99.90;;;;;;5096060;28;19927;-79
2021/12/05 14:15:35;;;;;;;;;;;4.80;99.90;;;;;;5077748;28;20263;-79
2021/12/05 14:18:01;;;;;;;;;;;4.80;99.90;;;;;;5096019;28;19927;-79
2021/12/05 14:20:26;;;;;;;;;;;4.80;99.90;;;;;;5077301;28;19919;-79
2021/12/05 14:22:52;;;;;;;;;;;4.80;99.90;;;;;;5095681;28;19927;-79
2021/12/05 14:25:19;;;;;;;;;;;4.80;99.90;;;;;;5077556;28;19920;-79
2021/12/05 14:27:55;;;;;;;;;;;4.80;99.90;;;;;;5095667;28;19920;-79
2021/12/05 14:30:22;;;;;;;;;;;4.80;99.90;;;;;;5095428;28;20014;-79
2021/12/05 14:32:49;;;;;;;;;;;4.80;99.90;;;;;;5095845;28;19920;-79
2021/12/05 14:35:22;;;;;;;;;;;4.80;99.90;;;;;;5077114;28;19920;-79
2021/12/05 14:37:49;;;;;;;;;;;4.80;99.90;;;;;;5095318;28;20298;-79
2021/12/05 14:40:16;;;;;;;;;;;4.80;99.90;;;;;;5077346;28;19989;-79
2021/12/05 14:42:44;;;;;;;;;;;4.80;99.90;;;;;;5095222;28;20369;-79
2021/12/05 14:45:12;;;;;;;;;;;4.70;99.90;;;;;;5095103;28;19926;-79
2021/12/05 14:47:39;;;;;;;;;;;4.70;99.90;;;;;;5077258;28;19920;-79
2021/12/05 14:50:25;;;;;;;;;;;4.70;99.90;;;;;;5076670;28;19955;-79
2021/12/05 14:52:51;;;;;;;;;;;4.70;99.90;;;;;;5076162;28;20408;-79
2021/12/05 14:55:18;;;;;;;;;;;4.70;99.90;;;;;;5076711;28;19916;-79
2021/12/05 14:57:48;;;;;;;;;;;4.70;99.90;;;;;;5095026;28;19924;-79
2021/12/05 15:00:17;;;;;;;;;;;4.60;99.90;;;;;;5095111;28;19927;-79
2021/12/05 15:02:42;;;;;;;;;;;4.60;99.90;;;;;;5076481;28;19935;-79
2021/12/05 15:05:10;;;;;;;;;;;4.60;99.90;;;;;;5059801;28;19917;-79
2021/12/05 15:07:35;;;;;;;;;;;4.60;99.90;;;;;;5076908;28;19943;-79
2021/12/05 15:10:02;;;;;;;;;;;4.60;99.90;;;;;;5076245;28;19920;-79
2021/12/05 15:12:29;;;;;;;;;;;4.60;99.90;;;;;;5060589;28;19927;-79
2021/12/05 15:14:56;;;;;;;;;;;4.50;99.90;;;;;;5077954;28;19931;-79
2021/12/05 15:17:23;;;;;;;;;;;4.50;99.90;;;;;;5095916;28;19919;-79
2021/12/05 15:19:51;;;;;;;;;;;4.50;99.90;;;;;;5095829;28;19920;-79
2021/12/05 15:22:17;;;;;;;;;;;4.50;99.90;;;;;;5077187;28;19926;-79
2021/12/05 15:24:49;;;;;;;;;;;4.50;99.90;;;;;;5076605;28;19923;-79
2021/12/05 15:27:16;;;;;;;;;;;4.50;99.90;;;;;;5094818;28;19974;-79
2021/12/05 15:29:46;;;;;;;;;;;4.50;99.90;;;;;;5076291;28;19920;-79
2021/12/05 15:32:16;;;;;;;;;;;4.40;99.90;;;;;;5076122;28;20010;-79
2021/12/05 15:34:41;;;;;;;;;;;4.40;99.90;;;;;;5076091;28;20361;-79
2021/12/05 15:37:09;;;;;;;;;;;4.30;99.90;;;;;;5094463;28;19973;-79
2021/12/05 15:39:36;;;;;;;;;;;4.30;99.90;;;;;;5094151;28;19927;-79
2021/12/05 15:42:11;;;;;;;;;;;4.30;99.90;;;;;;5094690;28;19920;-79
2021/12/05 15:44:39;;;;;;;;;;;4.30;99.90;;;;;;5076337;28;20014;-79
2021/12/05 15:47:12;;;;;;;;;;;4.30;99.90;;;;;;5094394;28;20358;-79
2021/12/05 15:49:44;;;;;;;;;;;4.20;99.90;;;;;;5075889;28;19946;-79
2021/12/05 15:52:10;;;;;;;;;;;4.20;99.90;;;;;;5094262;28;19920;-79
2021/12/05 15:54:36;;;;;;;;;;;4.30;99.90;;;;;;5094389;28;19927;-79
2021/12/05 15:57:10;;;;;;;;;;;4.10;99.90;;;;;;5094637;28;19920;-79
2021/12/05 15:59:39;;;;;;;;;;;4.10;99.90;;;;;;5094331;28;19920;-79
2021/12/05 16:02:10;;;;;;;;;;;4.10;99.90;;;;;;5076444;28;19969;-79
2021/12/05 16:04:36;;;;;;;;;;;4.10;99.90;;;;;;5094428;28;19920;-79
2021/12/05 16:07:02;;;;;;;;;;;4.00;99.90;;;;;;5075949;28;19920;-79
2021/12/05 16:09:28;;;;;;;;;;;4.00;99.90;;;;;;5094240;28;20282;-79
2021/12/05 16:12:08;;;;;;;;;;;3.90;99.90;;;;;;5075718;28;19938;-79
2021/12/05 16:14:37;;;;;;;;;;;3.90;99.90;;;;;;5094254;28;19916;-79
2021/12/05 16:17:24;;;;;;;;;;;3.80;99.90;;;;;;5075779;28;19920;-79
2021/12/05 16:20:08;;;;;;;;;;;3.80;99.90;;;;;;5094157;28;19967;-79
2021/12/05 16:22:53;;;;;;;;;;;3.80;99.90;;;;;;5075711;28;19924;-79
2021/12/05 16:25:18;;;;;;;;;;;3.80;99.90;;;;;;5094213;28;19927;-79
2021/12/05 16:27:48;;;;;;;;;;;3.70;99.90;;;;;;5093873;28;19919;-79
2021/12/05 16:30:24;;;;;;;;;;;3.70;99.90;;;;;;5093952;28;20018;-79
2021/12/05 16:32:49;;;;;;;;;;;3.70;99.90;;;;;;5094134;28;20010;-79
2021/12/05 16:35:28;;;;;;;;;;;3.70;99.90;;;;;;5094009;28;20381;-79
2021/12/05 16:37:54;;;;;;;;;;;3.70;99.90;;;;;;5094060;28;20090;-79
2021/12/05 16:40:20;;;;;;;;;;;3.70;99.90;;;;;;5075458;28;20034;-79
2021/12/05 16:42:46;;;;;;;;;;;3.70;99.90;;;;;;5093984;28;19993;-79
2021/12/05 16:45:12;;;;;;;;;;;3.70;99.90;;;;;;5075463;28;19920;-79
2021/12/05 16:47:38;;;;;;;;;;;3.70;99.90;;;;;;5094034;28;19920;-79
2021/12/05 16:50:05;;;;;;;;;;;3.60;99.90;;;;;;5095428;28;20308;-79
2021/12/05 16:52:37;;;;;;;;;;;3.60;99.90;;;;;;5097317;28;20431;-79
2021/12/05 16:55:15;;;;;;;;;;;3.60;99.90;;;;;;5097754;28;19920;-79
2021/12/05 16:57:48;;;;;;;;;;;3.60;99.90;;;;;;5097496;28;19926;-79
2021/12/05 17:00:18;;;;;;;;;;;3.60;99.90;;;;;;5097288;28;19965;-79
2021/12/05 17:02:50;;;;;;;;;;;3.60;99.90;;;;;;5078818;28;20015;-79
2021/12/05 17:05:21;;;;;;;;;;;3.60;99.90;;;;;;5097387;28;20362;-79
2021/12/05 17:08:01;;;;;;;;;;;3.50;99.90;;;;;;5078752;28;20370;-79
2021/12/05 17:10:26;;;;;;;;;;;3.60;99.90;;;;;;5097017;28;19927;-78
2021/12/05 17:12:53;;;;;;;;;;;3.60;99.90;;;;;;5099005;28;19920;-79
2021/12/05 17:15:21;;;;;;;;;;;3.60;99.90;;;;;;5097632;28;19919;-80
2021/12/05 17:17:47;;;;;;;;;;;3.60;99.90;;;;;;5097767;28;19920;-79
2021/12/05 17:20:25;;;;;;;;;;;3.60;99.90;;;;;;5076655;28;19927;-79
2021/12/05 17:23:02;;;;;;;;;;;3.60;99.90;;;;;;5077683;28;19927;-79
2021/12/05 17:25:29;;;;;;;;;;;3.70;99.90;;;;;;5075875;28;19972;-79
2021/12/05 17:27:55;;;;;;;;;;;3.70;99.90;;;;;;5077191;28;19994;-80
2021/12/05 17:30:20;;;;;;;;;;;3.70;99.90;;;;;;5075757;28;20382;-79
2021/12/05 17:32:46;;;;;;;;;;;3.70;99.90;;;;;;5077057;28;20277;-79
2021/12/05 17:35:11;;;;;;;;;;;3.80;99.90;;;;;;5075467;28;19970;-79
2021/12/05 17:37:42;;;;;;;;;;;3.80;99.90;;;;;;5076750;28;19982;-79
2021/12/05 17:40:08;;;;;;;;;;;3.80;99.90;;;;;;5075183;28;19920;-79
2021/12/05 17:42:34;;;;;;;;;;;3.80;99.90;;;;;;5076559;28;19950;-79
2021/12/05 17:45:01;;;;;;;;;;;3.80;99.90;;;;;;5075231;28;19935;-80
2021/12/05 17:47:27;;;;;;;;;;;3.80;99.90;;;;;;5076757;28;19946;-79
2021/12/05 17:49:54;;;;;;;;;;;3.90;99.90;;;;;;5076482;28;19920;-79
2021/12/05 17:52:22;;;;;;;;;;;3.90;99.90;;;;;;5075123;28;19928;-79
2021/12/05 17:55:03;;;;;;;;;;;3.90;99.90;;;;;;5075233;28;19974;-79
2021/12/05 17:57:40;;;;;;;;;;;3.90;99.90;;;;;;5076518;28;19920;-79
2021/12/05 18:00:15;;;;;;;;;;;3.90;99.90;;;;;;5075144;28;19920;-79
2021/12/05 18:05:10;;;;;;;;;;;3.90;99.90;;;;;;5076156;28;20382;-79
2021/12/05 18:07:35;;;;;;;;;;;4.00;99.90;;;;;;5075242;28;19920;-79
2021/12/05 18:10:02;;;;;;;;;;;4.00;99.90;;;;;;5076512;28;19920;-79
2021/12/05 18:12:35;;;;;;;;;;;4.00;99.90;;;;;;5074709;28;19927;-80
2021/12/05 18:15:08;;;;;;;;;;;4.00;99.90;;;;;;5076408;28;19920;-80
2021/12/05 18:17:36;;;;;;;;;;;4.00;99.90;;;;;;5074487;28;20444;-80
2021/12/05 18:20:02;;;;;;;;;;;4.00;99.90;;;;;;5085312;28;19924;-79
2021/12/05 18:22:28;;;;;;;;;;;4.10;99.90;;;;;;5077676;28;19920;-80
2021/12/05 18:24:53;;;;;;;;;;;4.00;99.90;;;;;;5096115;28;19924;-79
2021/12/05 18:27:19;;;;;;;;;;;4.10;99.90;;;;;;5077449;28;20262;-79
2021/12/05 18:29:45;;;;;;;;;;;4.10;99.90;;;;;;5077543;28;19924;-79
2021/12/05 18:32:13;;;;;;;;;;;4.00;99.90;;;;;;5077274;28;19920;-79
2021/12/05 18:34:38;;;;;;;;;;;4.40;99.90;;;;;;5096113;28;19920;-79
2021/12/05 18:37:05;;;;;;;;;;;4.10;99.90;;;;;;5077562;28;20302;-80
2021/12/05 18:39:37;;;;;;;;;;;4.50;99.90;;;;;;5095780;28;19924;-79
2021/12/05 18:48:29;;;;;;;;;;;4.10;99.90;;;;;;5095623;28;20377;-80
2021/12/05 18:50:55;;;;;;;;;;;4.10;99.90;;;;;;5095359;28;19920;-79
2021/12/05 18:53:20;;;;;;;;;;;4.10;99.90;;;;;;5076960;28;19942;-80
2021/12/05 18:55:47;;;;;;;;;;;4.10;99.90;;;;;;5095585;28;19975;-79
2021/12/05 18:58:13;;;;;;;;;;;4.10;99.90;;;;;;5076874;28;19970;-79
2021/12/05 19:04:21;;;;;;;;;;;4.00;99.90;;;;;;5095313;28;19966;-79
2021/12/05 19:06:14;;;;;;;;;;;4.10;99.90;;;;;;5095313;28;19920;-79
2021/12/05 19:09:06;;;;;;;;;;;4.00;99.90;;;;;;5094919;28;19941;-79
2021/12/05 19:11:47;;;;;;;;;;;4.10;99.90;;;;;;5095259;28;19967;-80
2021/12/05 19:14:17;;;;;;;;;;;4.00;99.90;;;;;;5094548;28;20002;-79
2021/12/05 19:16:47;;;;;;;;;;;4.10;99.90;;;;;;5076843;28;20028;-79
2021/12/05 19:19:13;;;;;;;;;;;4.00;99.90;;;;;;5076461;28;19927;-79
2021/12/05 19:21:39;;;;;;;;;;;4.00;99.90;;;;;;5076605;28;19978;-79
2021/12/05 19:24:06;;;;;;;;;;;4.00;99.90;;;;;;5095164;28;19920;-79
2021/12/05 19:26:32;;;;;;;;;;;4.00;99.90;;;;;;5094797;28;20377;-79
2021/12/05 19:28:59;;;;;;;;;;;4.00;99.90;;;;;;5094978;28;19920;-80
2021/12/05 19:31:25;;;;;;;;;;;4.00;99.90;;;;;;5095205;28;20285;-79
2021/12/05 19:33:50;;;;;;;;;;;4.00;99.90;;;;;;5095121;28;19920;-80
2021/12/05 19:36:18;;;;;;;;;;;4.00;99.90;;;;;;5095017;28;20031;-79
2021/12/05 19:38:44;;;;;;;;;;;4.00;99.90;;;;;;5094645;28;20010;-79
2021/12/05 19:41:10;;;;;;;;;;;4.00;99.90;;;;;;5076684;28;19971;-79
2021/12/05 19:43:37;;;;;;;;;;;4.00;99.90;;;;;;5095414;28;19923;-80
2021/12/05 19:46:04;;;;;;;;;;;4.00;99.90;;;;;;5076589;28;19920;-80
2021/12/05 19:48:30;;;;;;;;;;;4.00;99.90;;;;;;5095165;28;19970;-80
2021/12/05 19:50:57;;;;;;;;;;;4.00;99.90;;;;;;5076344;28;20007;-80
2021/12/05 19:53:23;;;;;;;;;;;4.00;99.90;;;;;;5076424;28;19920;-79
2021/12/05 19:55:49;;;;;;;;;;;4.00;99.90;;;;;;5076370;28;20012;-80
2021/12/05 19:58:15;;;;;;;;;;;4.00;99.90;;;;;;5076387;28;19920;-79
2021/12/05 20:00:41;;;;;;;;;;;4.00;99.90;;;;;;5076520;28;19988;-79
2021/12/05 20:03:07;;;;;;;;;;;4.00;99.90;;;;;;5059684;28;19920;-80
2021/12/05 20:05:35;;;;;;;;;;;3.90;99.90;;;;;;5076291;28;19972;-79
2021/12/05 20:08:00;;;;;;;;;;;3.90;99.90;;;;;;5076233;28;19920;-79
2021/12/05 20:10:28;;;;;;;;;;;4.00;99.90;;;;;;5076499;28;20285;-79
2021/12/05 20:12:53;;;;;;;;;;;3.90;99.90;;;;;;5076564;28;19920;-80
2021/12/05 20:15:19;;;;;;;;;;;3.90;99.90;;;;;;5076225;28;19939;-79
2021/12/05 20:17:49;;;;;;;;;;;3.90;99.90;;;;;;5094514;28;19920;-80
2021/12/05 20:20:16;;;;;;;;;;;3.90;99.90;;;;;;5094654;28;19959;-79
2021/12/05 20:22:41;;;;;;;;;;;3.90;99.90;;;;;;5075892;28;19926;-79
2021/12/05 20:25:10;;;;;;;;;;;3.80;99.90;;;;;;5096108;28;19920;-79
2021/12/05 20:27:38;;;;;;;;;;;3.90;99.90;;;;;;5081263;28;19916;-79
2021/12/05 20:30:05;;;;;;;;;;;3.90;99.90;;;;;;5098442;28;20011;-79
2021/12/05 20:32:31;;;;;;;;;;;3.80;99.90;;;;;;5080199;28;19978;-79
2021/12/05 20:34:56;;;;;;;;;;;3.80;99.90;;;;;;5098364;28;19958;-80
2021/12/05 20:37:22;;;;;;;;;;;3.80;99.90;;;;;;5079710;28;19920;-79
2021/12/05 20:39:48;;;;;;;;;;;3.70;99.90;;;;;;5098305;28;19982;-79
2021/12/05 20:42:14;;;;;;;;;;;3.70;99.90;;;;;;5080255;28;20286;-79
2021/12/05 20:48:01;;;;;;;;;;;3.60;99.90;;;;;;5097971;28;20278;-79
2021/12/05 20:50:27;;;;;;;;;;;3.60;99.90;;;;;;5079773;28;19920;-80
2021/12/05 20:52:53;;;;;;;;;;;3.50;99.90;;;;;;5099299;28;19919;-79
2021/12/05 20:55:19;;;;;;;;;;;3.50;99.90;;;;;;5079693;28;19936;-79
2021/12/05 20:57:45;;;;;;;;;;;3.50;99.90;;;;;;5098153;28;19945;-79